sensor_id;sensor_type;location;lat;lon;timestamp;temperature;humidity
17607;DHT22;8922;52.240;20.980;2022-09-09T00:01:41;13.80;99.90
17607;DHT22;8922;52.240;20.980;2022-09-09T00:04:13;13.80;99.90
17607;DHT22;8922;52.240;20.980;2022-09-09T00:06:44;13.80;99.90
17607;DHT22;8922;52.240;20.980;2022-09-09T00:09:13;13.70;99.90
17607;DHT22;8922;52.240;20.980;2022-09-09T00:11:47;13.60;99.90
17607;DHT22;8922;52.240;20.980;2022-09-09T00:14:25;13.60;99.90
17607;DHT22;8922;52.240;20.980;2022-09-09T00:16:56;13.70;99.90
17607;DHT22;8922;52.240;20.980;2022-09-09T00:19:30;13.50;99.90
17607;DHT22;8922;52.240;20.980;2022-09-09T00:22:08;13.40;99.90
17607;DHT22;8922;52.240;20.980;2022-09-09T00:24:43;13.40;99.90
17607;DHT22;8922;52.240;20.980;2022-09-09T00:27:18;13.30;99.90
17607;DHT22;8922;52.240;20.980;2022-09-09T00:29:50;13.20;99.90
17607;DHT22;8922;52.240;20.980;2022-09-09T00:32:18;13.20;99.90
17607;DHT22;8922;52.240;20.980;2022-09-09T00:34:49;13.10;99.90
17607;DHT22;8922;52.240;20.980;2022-09-09T00:37:16;13.10;99.90
17607;DHT22;8922;52.240;20.980;2022-09-09T00:39:45;13.10;99.90
17607;DHT22;8922;52.240;20.980;2022-09-09T00:42:17;13.10;99.90
17607;DHT22;8922;52.240;20.980;2022-09-09T00:44:52;13.00;99.90
17607;DHT22;8922;52.240;20.980;2022-09-09T00:47:39;13.00;99.90
17607;DHT22;8922;52.240;20.980;2022-09-09T00:50:19;13.00;99.90
17607;DHT22;8922;52.240;20.980;2022-09-09T00:52:55;13.00;99.90
17607;DHT22;8922;52.240;20.980;2022-09-09T00:55:33;13.00;99.90
17607;DHT22;8922;52.240;20.980;2022-09-09T00:58:06;12.90;99.90
17607;DHT22;8922;52.240;20.980;2022-09-09T01:00:40;13.00;99.90
17607;DHT22;8922;52.240;20.980;2022-09-09T01:03:22;12.90;99.90
17607;DHT22;8922;52.240;20.980;2022-09-09T01:05:59;12.90;99.90
17607;DHT22;8922;52.240;20.980;2022-09-09T01:11:33;12.90;99.90
17607;DHT22;8922;52.240;20.980;2022-09-09T01:14:13;12.90;99.90
17607;DHT22;8922;52.240;20.980;2022-09-09T01:16:45;12.80;99.90
17607;DHT22;8922;52.240;20.980;2022-09-09T01:19:20;12.90;99.90
17607;DHT22;8922;52.240;20.980;2022-09-09T01:21:55;12.90;99.90
17607;DHT22;8922;52.240;20.980;2022-09-09T01:24:27;12.90;99.90
17607;DHT22;8922;52.240;20.980;2022-09-09T01:27:01;12.80;99.90
17607;DHT22;8922;52.240;20.980;2022-09-09T01:29:29;12.80;99.90
17607;DHT22;8922;52.240;20.980;2022-09-09T01:31:57;12.80;99.90
17607;DHT22;8922;52.240;20.980;2022-09-09T01:34:26;12.80;99.90
17607;DHT22;8922;52.240;20.980;2022-09-09T01:36:58;12.80;99.90
17607;DHT22;8922;52.240;20.980;2022-09-09T01:39:26;12.80;99.90
17607;DHT22;8922;52.240;20.980;2022-09-09T01:41:55;12.80;99.90
17607;DHT22;8922;52.240;20.980;2022-09-09T01:44:24;12.80;99.90
17607;DHT22;8922;52.240;20.980;2022-09-09T01:46:52;12.80;99.90
17607;DHT22;8922;52.240;20.980;2022-09-09T01:49:19;12.90;99.90
17607;DHT22;8922;52.240;20.980;2022-09-09T01:51:48;12.80;99.90
17607;DHT22;8922;52.240;20.980;2022-09-09T01:54:16;12.80;99.90
17607;DHT22;8922;52.240;20.980;2022-09-09T01:56:50;12.80;99.90
17607;DHT22;8922;52.240;20.980;2022-09-09T01:59:33;12.80;99.90
17607;DHT22;8922;52.240;20.980;2022-09-09T02:02:09;12.90;99.90
17607;DHT22;8922;52.240;20.980;2022-09-09T02:04:40;12.90;99.90
17607;DHT22;8922;52.240;20.980;2022-09-09T02:07:19;12.90;99.90
17607;DHT22;8922;52.240;20.980;2022-09-09T02:09:52;12.90;99.90
17607;DHT22;8922;52.240;20.980;2022-09-09T02:12:24;12.90;99.90
17607;DHT22;8922;52.240;20.980;2022-09-09T02:14:58;12.90;99.90
17607;DHT22;8922;52.240;20.980;2022-09-09T02:17:29;12.90;99.90
17607;DHT22;8922;52.240;20.980;2022-09-09T02:20:03;12.90;99.90
17607;DHT22;8922;52.240;20.980;2022-09-09T02:22:33;12.90;99.90
17607;DHT22;8922;52.240;20.980;2022-09-09T02:25:02;12.90;99.90
17607;DHT22;8922;52.240;20.980;2022-09-09T02:27:30;12.90;99.90
17607;DHT22;8922;52.240;20.980;2022-09-09T02:30:00;12.90;99.90
17607;DHT22;8922;52.240;20.980;2022-09-09T02:32:28;12.90;99.90
17607;DHT22;8922;52.240;20.980;2022-09-09T02:34:59;12.90;99.90
17607;DHT22;8922;52.240;20.980;2022-09-09T02:37:32;12.80;99.90
17607;DHT22;8922;52.240;20.980;2022-09-09T02:40:01;12.80;99.90
17607;DHT22;8922;52.240;20.980;2022-09-09T02:42:28;12.80;99.90
17607;DHT22;8922;52.240;20.980;2022-09-09T02:44:55;12.80;99.90
17607;DHT22;8922;52.240;20.980;2022-09-09T02:47:32;12.80;99.90
17607;DHT22;8922;52.240;20.980;2022-09-09T02:50:09;12.80;99.90
17607;DHT22;8922;52.240;20.980;2022-09-09T02:52:45;12.80;99.90
17607;DHT22;8922;52.240;20.980;2022-09-09T02:55:20;12.90;99.90
17607;DHT22;8922;52.240;20.980;2022-09-09T02:57:51;12.80;99.90
17607;DHT22;8922;52.240;20.980;2022-09-09T03:00:23;12.90;99.90
17607;DHT22;8922;52.240;20.980;2022-09-09T03:02:52;12.90;99.90
17607;DHT22;8922;52.240;20.980;2022-09-09T03:05:19;12.90;99.90
17607;DHT22;8922;52.240;20.980;2022-09-09T03:07:47;12.90;99.90
17607;DHT22;8922;52.240;20.980;2022-09-09T03:10:15;12.90;99.90
17607;DHT22;8922;52.240;20.980;2022-09-09T03:12:42;12.90;99.90
17607;DHT22;8922;52.240;20.980;2022-09-09T03:15:09;12.90;99.90
17607;DHT22;8922;52.240;20.980;2022-09-09T03:17:36;12.90;99.90
17607;DHT22;8922;52.240;20.980;2022-09-09T03:20:04;12.90;99.90
17607;DHT22;8922;52.240;20.980;2022-09-09T03:22:32;12.70;99.90
17607;DHT22;8922;52.240;20.980;2022-09-09T03:24:59;12.90;99.90
17607;DHT22;8922;52.240;20.980;2022-09-09T03:27:27;12.90;99.90
17607;DHT22;8922;52.240;20.980;2022-09-09T03:29:54;12.90;99.90
17607;DHT22;8922;52.240;20.980;2022-09-09T03:32:21;12.90;99.90
17607;DHT22;8922;52.240;20.980;2022-09-09T03:34:49;12.90;99.90
17607;DHT22;8922;52.240;20.980;2022-09-09T03:37:17;13.00;99.90
17607;DHT22;8922;52.240;20.980;2022-09-09T03:39:44;12.90;99.90
17607;DHT22;8922;52.240;20.980;2022-09-09T03:42:12;13.00;99.90
17607;DHT22;8922;52.240;20.980;2022-09-09T03:44:41;12.90;99.90
17607;DHT22;8922;52.240;20.980;2022-09-09T03:47:11;12.90;99.90
17607;DHT22;8922;52.240;20.980;2022-09-09T03:49:38;12.90;99.90
17607;DHT22;8922;52.240;20.980;2022-09-09T03:52:05;12.90;99.90
17607;DHT22;8922;52.240;20.980;2022-09-09T03:54:33;12.90;99.90
17607;DHT22;8922;52.240;20.980;2022-09-09T03:57:00;12.80;99.90
17607;DHT22;8922;52.240;20.980;2022-09-09T03:59:27;12.80;99.90
17607;DHT22;8922;52.240;20.980;2022-09-09T04:01:54;12.80;99.90
17607;DHT22;8922;52.240;20.980;2022-09-09T04:04:22;12.80;99.90
17607;DHT22;8922;52.240;20.980;2022-09-09T04:06:49;12.80;99.90
17607;DHT22;8922;52.240;20.980;2022-09-09T04:09:16;12.80;99.90
17607;DHT22;8922;52.240;20.980;2022-09-09T04:11:44;12.90;99.90
17607;DHT22;8922;52.240;20.980;2022-09-09T04:14:11;12.80;99.90
17607;DHT22;8922;52.240;20.980;2022-09-09T04:16:39;12.90;99.90
17607;DHT22;8922;52.240;20.980;2022-09-09T04:19:08;12.90;99.90
17607;DHT22;8922;52.240;20.980;2022-09-09T04:21:37;12.90;99.90
17607;DHT22;8922;52.240;20.980;2022-09-09T04:24:05;13.00;99.90
17607;DHT22;8922;52.240;20.980;2022-09-09T04:26:32;13.10;99.90
17607;DHT22;8922;52.240;20.980;2022-09-09T04:29:00;13.10;99.90
17607;DHT22;8922;52.240;20.980;2022-09-09T04:31:27;13.00;99.90
17607;DHT22;8922;52.240;20.980;2022-09-09T04:33:54;13.10;99.90
17607;DHT22;8922;52.240;20.980;2022-09-09T04:36:21;13.10;99.90
17607;DHT22;8922;52.240;20.980;2022-09-09T04:38:48;13.00;99.90
17607;DHT22;8922;52.240;20.980;2022-09-09T04:41:15;13.00;99.90
17607;DHT22;8922;52.240;20.980;2022-09-09T04:43:43;13.10;99.90
17607;DHT22;8922;52.240;20.980;2022-09-09T04:46:11;13.10;99.90
17607;DHT22;8922;52.240;20.980;2022-09-09T04:48:38;13.10;99.90
17607;DHT22;8922;52.240;20.980;2022-09-09T04:51:08;13.10;99.90
17607;DHT22;8922;52.240;20.980;2022-09-09T04:53:35;13.10;99.90
17607;DHT22;8922;52.240;20.980;2022-09-09T04:56:03;13.10;99.90
17607;DHT22;8922;52.240;20.980;2022-09-09T04:58:31;13.10;99.90
17607;DHT22;8922;52.240;20.980;2022-09-09T05:01:04;13.10;99.90
17607;DHT22;8922;52.240;20.980;2022-09-09T05:03:32;13.10;99.90
17607;DHT22;8922;52.240;20.980;2022-09-09T05:06:04;13.10;99.90
17607;DHT22;8922;52.240;20.980;2022-09-09T05:08:31;13.10;99.90
17607;DHT22;8922;52.240;20.980;2022-09-09T05:10:57;13.10;99.90
17607;DHT22;8922;52.240;20.980;2022-09-09T05:13:24;13.20;99.90
17607;DHT22;8922;52.240;20.980;2022-09-09T05:15:52;13.20;99.90
17607;DHT22;8922;52.240;20.980;2022-09-09T05:18:19;13.10;99.90
17607;DHT22;8922;52.240;20.980;2022-09-09T05:20:49;13.10;99.90
17607;DHT22;8922;52.240;20.980;2022-09-09T05:23:16;13.10;99.90
17607;DHT22;8922;52.240;20.980;2022-09-09T05:25:43;13.10;99.90
17607;DHT22;8922;52.240;20.980;2022-09-09T05:28:12;13.20;99.90
17607;DHT22;8922;52.240;20.980;2022-09-09T05:30:38;13.20;99.90
17607;DHT22;8922;52.240;20.980;2022-09-09T05:33:05;13.20;99.90
17607;DHT22;8922;52.240;20.980;2022-09-09T05:35:34;13.20;99.90
17607;DHT22;8922;52.240;20.980;2022-09-09T05:38:02;13.20;99.90
17607;DHT22;8922;52.240;20.980;2022-09-09T05:40:29;13.20;99.90
17607;DHT22;8922;52.240;20.980;2022-09-09T05:43:00;13.20;99.90
17607;DHT22;8922;52.240;20.980;2022-09-09T05:45:27;13.20;99.90
17607;DHT22;8922;52.240;20.980;2022-09-09T05:47:53;13.20;99.90
17607;DHT22;8922;52.240;20.980;2022-09-09T05:50:20;13.20;99.90
17607;DHT22;8922;52.240;20.980;2022-09-09T05:52:47;13.20;99.90
17607;DHT22;8922;52.240;20.980;2022-09-09T05:55:16;13.20;99.90
17607;DHT22;8922;52.240;20.980;2022-09-09T05:57:48;13.30;99.90
17607;DHT22;8922;52.240;20.980;2022-09-09T06:00:17;13.20;99.90
17607;DHT22;8922;52.240;20.980;2022-09-09T06:02:50;13.30;99.90
17607;DHT22;8922;52.240;20.980;2022-09-09T06:05:17;13.30;99.90
17607;DHT22;8922;52.240;20.980;2022-09-09T06:07:44;13.30;99.90
17607;DHT22;8922;52.240;20.980;2022-09-09T06:10:11;13.30;99.90
17607;DHT22;8922;52.240;20.980;2022-09-09T06:12:40;13.30;99.90
17607;DHT22;8922;52.240;20.980;2022-09-09T06:15:08;13.30;99.90
17607;DHT22;8922;52.240;20.980;2022-09-09T06:17:35;13.30;99.90
17607;DHT22;8922;52.240;20.980;2022-09-09T06:20:02;13.40;99.90
17607;DHT22;8922;52.240;20.980;2022-09-09T06:22:29;13.40;99.90
17607;DHT22;8922;52.240;20.980;2022-09-09T06:24:56;13.40;99.90
17607;DHT22;8922;52.240;20.980;2022-09-09T06:27:23;13.40;99.90
17607;DHT22;8922;52.240;20.980;2022-09-09T06:29:51;13.40;99.90
17607;DHT22;8922;52.240;20.980;2022-09-09T06:32:18;13.40;99.90
17607;DHT22;8922;52.240;20.980;2022-09-09T06:34:44;13.40;99.90
17607;DHT22;8922;52.240;20.980;2022-09-09T06:37:12;13.40;99.90
17607;DHT22;8922;52.240;20.980;2022-09-09T06:39:39;13.50;99.90
17607;DHT22;8922;52.240;20.980;2022-09-09T06:42:07;13.50;99.90
17607;DHT22;8922;52.240;20.980;2022-09-09T06:44:34;13.50;99.90
17607;DHT22;8922;52.240;20.980;2022-09-09T06:47:03;13.40;99.90
17607;DHT22;8922;52.240;20.980;2022-09-09T06:49:30;13.40;99.90
17607;DHT22;8922;52.240;20.980;2022-09-09T06:51:57;13.50;99.90
17607;DHT22;8922;52.240;20.980;2022-09-09T06:54:24;13.40;99.90
17607;DHT22;8922;52.240;20.980;2022-09-09T06:56:51;13.40;99.90
17607;DHT22;8922;52.240;20.980;2022-09-09T06:59:18;13.40;99.90
17607;DHT22;8922;52.240;20.980;2022-09-09T07:01:45;13.40;99.90
17607;DHT22;8922;52.240;20.980;2022-09-09T07:04:14;13.30;99.90
17607;DHT22;8922;52.240;20.980;2022-09-09T07:06:42;13.30;99.90
17607;DHT22;8922;52.240;20.980;2022-09-09T07:09:13;13.40;99.90
17607;DHT22;8922;52.240;20.980;2022-09-09T07:11:42;13.30;99.90
17607;DHT22;8922;52.240;20.980;2022-09-09T07:14:10;13.40;99.90
17607;DHT22;8922;52.240;20.980;2022-09-09T07:16:38;13.40;99.90
17607;DHT22;8922;52.240;20.980;2022-09-09T07:19:05;13.40;99.90
17607;DHT22;8922;52.240;20.980;2022-09-09T07:21:33;13.50;99.90
17607;DHT22;8922;52.240;20.980;2022-09-09T07:24:01;13.40;99.90
17607;DHT22;8922;52.240;20.980;2022-09-09T07:26:30;13.50;99.90
17607;DHT22;8922;52.240;20.980;2022-09-09T07:28:57;13.50;99.90
17607;DHT22;8922;52.240;20.980;2022-09-09T07:31:26;13.50;99.90
17607;DHT22;8922;52.240;20.980;2022-09-09T07:33:53;13.50;99.90
17607;DHT22;8922;52.240;20.980;2022-09-09T07:36:21;13.50;99.90
17607;DHT22;8922;52.240;20.980;2022-09-09T07:38:52;13.60;99.90
17607;DHT22;8922;52.240;20.980;2022-09-09T07:41:21;13.60;99.90
17607;DHT22;8922;52.240;20.980;2022-09-09T07:43:50;13.60;99.90
17607;DHT22;8922;52.240;20.980;2022-09-09T07:46:19;13.60;99.90
17607;DHT22;8922;52.240;20.980;2022-09-09T07:48:47;13.60;99.90
17607;DHT22;8922;52.240;20.980;2022-09-09T07:51:18;13.70;99.90
17607;DHT22;8922;52.240;20.980;2022-09-09T07:53:47;13.70;99.90
17607;DHT22;8922;52.240;20.980;2022-09-09T07:56:17;13.80;99.90
17607;DHT22;8922;52.240;20.980;2022-09-09T07:58:46;13.90;99.90
17607;DHT22;8922;52.240;20.980;2022-09-09T08:01:15;13.90;99.90
17607;DHT22;8922;52.240;20.980;2022-09-09T08:03:43;13.90;99.90
17607;DHT22;8922;52.240;20.980;2022-09-09T08:06:11;14.00;99.90
17607;DHT22;8922;52.240;20.980;2022-09-09T08:08:40;14.00;99.90
17607;DHT22;8922;52.240;20.980;2022-09-09T08:11:10;14.00;99.90
17607;DHT22;8922;52.240;20.980;2022-09-09T08:13:39;14.00;99.90
17607;DHT22;8922;52.240;20.980;2022-09-09T08:16:07;14.00;99.90
17607;DHT22;8922;52.240;20.980;2022-09-09T08:18:35;13.90;99.90
17607;DHT22;8922;52.240;20.980;2022-09-09T08:21:08;14.00;99.90
17607;DHT22;8922;52.240;20.980;2022-09-09T08:23:38;14.00;99.90
17607;DHT22;8922;52.240;20.980;2022-09-09T08:26:10;14.10;99.90
17607;DHT22;8922;52.240;20.980;2022-09-09T08:28:39;14.00;99.90
17607;DHT22;8922;52.240;20.980;2022-09-09T08:31:12;14.10;99.90
17607;DHT22;8922;52.240;20.980;2022-09-09T08:33:39;14.10;99.90
17607;DHT22;8922;52.240;20.980;2022-09-09T08:36:08;14.20;99.90
17607;DHT22;8922;52.240;20.980;2022-09-09T08:38:35;14.20;99.90
17607;DHT22;8922;52.240;20.980;2022-09-09T08:41:16;14.30;99.90
17607;DHT22;8922;52.240;20.980;2022-09-09T08:43:47;14.40;99.90
17607;DHT22;8922;52.240;20.980;2022-09-09T08:46:21;14.40;99.90
17607;DHT22;8922;52.240;20.980;2022-09-09T08:48:56;14.40;99.90
17607;DHT22;8922;52.240;20.980;2022-09-09T08:51:27;14.30;99.90
17607;DHT22;8922;52.240;20.980;2022-09-09T08:53:58;14.40;99.90
17607;DHT22;8922;52.240;20.980;2022-09-09T08:56:27;14.40;99.90
17607;DHT22;8922;52.240;20.980;2022-09-09T08:59:00;14.40;99.90
17607;DHT22;8922;52.240;20.980;2022-09-09T09:01:51;14.50;99.90
17607;DHT22;8922;52.240;20.980;2022-09-09T09:04:37;14.50;99.90
17607;DHT22;8922;52.240;20.980;2022-09-09T09:07:15;14.50;99.90
17607;DHT22;8922;52.240;20.980;2022-09-09T09:09:50;14.50;99.90
17607;DHT22;8922;52.240;20.980;2022-09-09T09:12:26;14.50;99.90
17607;DHT22;8922;52.240;20.980;2022-09-09T09:14:56;14.50;99.90
17607;DHT22;8922;52.240;20.980;2022-09-09T09:17:27;14.50;99.90
17607;DHT22;8922;52.240;20.980;2022-09-09T09:19:57;14.50;99.90
17607;DHT22;8922;52.240;20.980;2022-09-09T09:22:30;14.50;99.90
17607;DHT22;8922;52.240;20.980;2022-09-09T09:25:04;14.50;99.90
17607;DHT22;8922;52.240;20.980;2022-09-09T09:27:40;14.50;99.90
17607;DHT22;8922;52.240;20.980;2022-09-09T09:30:17;14.60;99.90
17607;DHT22;8922;52.240;20.980;2022-09-09T09:32:55;14.50;99.90
17607;DHT22;8922;52.240;20.980;2022-09-09T09:35:22;14.50;99.90
17607;DHT22;8922;52.240;20.980;2022-09-09T09:37:50;14.50;99.90
17607;DHT22;8922;52.240;20.980;2022-09-09T09:40:19;14.50;99.90
17607;DHT22;8922;52.240;20.980;2022-09-09T09:42:52;14.40;99.90
17607;DHT22;8922;52.240;20.980;2022-09-09T09:45:29;14.50;99.90
17607;DHT22;8922;52.240;20.980;2022-09-09T09:47:59;14.50;99.90
17607;DHT22;8922;52.240;20.980;2022-09-09T09:50:28;14.60;99.90
17607;DHT22;8922;52.240;20.980;2022-09-09T09:52:55;14.60;99.90
17607;DHT22;8922;52.240;20.980;2022-09-09T09:55:23;14.60;99.90
17607;DHT22;8922;52.240;20.980;2022-09-09T09:57:50;14.70;99.90
17607;DHT22;8922;52.240;20.980;2022-09-09T10:00:20;14.70;99.90
17607;DHT22;8922;52.240;20.980;2022-09-09T10:02:50;14.80;99.90
17607;DHT22;8922;52.240;20.980;2022-09-09T10:05:20;14.70;99.90
17607;DHT22;8922;52.240;20.980;2022-09-09T10:07:59;14.80;99.90
17607;DHT22;8922;52.240;20.980;2022-09-09T10:10:34;14.80;99.90
17607;DHT22;8922;52.240;20.980;2022-09-09T10:13:11;14.80;99.90
17607;DHT22;8922;52.240;20.980;2022-09-09T10:15:45;14.90;99.90
17607;DHT22;8922;52.240;20.980;2022-09-09T10:18:30;14.90;99.90
17607;DHT22;8922;52.240;20.980;2022-09-09T10:21:11;15.00;99.90
17607;DHT22;8922;52.240;20.980;2022-09-09T10:23:58;14.90;99.90
17607;DHT22;8922;52.240;20.980;2022-09-09T10:26:35;14.90;99.90
17607;DHT22;8922;52.240;20.980;2022-09-09T10:29:15;15.00;99.90
17607;DHT22;8922;52.240;20.980;2022-09-09T10:31:51;15.00;99.90
17607;DHT22;8922;52.240;20.980;2022-09-09T10:34:36;15.00;99.90
17607;DHT22;8922;52.240;20.980;2022-09-09T10:37:16;14.90;99.90
17607;DHT22;8922;52.240;20.980;2022-09-09T10:39:50;14.90;99.90
17607;DHT22;8922;52.240;20.980;2022-09-09T10:42:25;15.00;99.90
17607;DHT22;8922;52.240;20.980;2022-09-09T10:45:04;15.00;99.90
17607;DHT22;8922;52.240;20.980;2022-09-09T10:47:55;15.00;99.90
17607;DHT22;8922;52.240;20.980;2022-09-09T10:53:18;14.90;99.90
17607;DHT22;8922;52.240;20.980;2022-09-09T10:55:53;14.90;99.90
17607;DHT22;8922;52.240;20.980;2022-09-09T10:58:24;15.00;99.90
17607;DHT22;8922;52.240;20.980;2022-09-09T11:00:54;15.00;99.90
17607;DHT22;8922;52.240;20.980;2022-09-09T11:03:26;15.00;99.90
17607;DHT22;8922;52.240;20.980;2022-09-09T11:05:59;15.00;99.90
17607;DHT22;8922;52.240;20.980;2022-09-09T11:08:29;15.00;99.90
17607;DHT22;8922;52.240;20.980;2022-09-09T11:11:00;15.20;99.90
17607;DHT22;8922;52.240;20.980;2022-09-09T11:13:35;15.10;99.90
17607;DHT22;8922;52.240;20.980;2022-09-09T11:16:16;15.10;99.90
17607;DHT22;8922;52.240;20.980;2022-09-09T11:18:46;15.10;99.90
17607;DHT22;8922;52.240;20.980;2022-09-09T11:21:22;15.10;99.90
17607;DHT22;8922;52.240;20.980;2022-09-09T11:23:54;15.00;99.90
17607;DHT22;8922;52.240;20.980;2022-09-09T11:26:29;15.10;99.90
17607;DHT22;8922;52.240;20.980;2022-09-09T11:29:09;15.00;99.90
17607;DHT22;8922;52.240;20.980;2022-09-09T11:31:45;15.10;99.90
17607;DHT22;8922;52.240;20.980;2022-09-09T11:34:21;15.10;99.90
17607;DHT22;8922;52.240;20.980;2022-09-09T11:37:06;15.00;99.90
17607;DHT22;8922;52.240;20.980;2022-09-09T11:40:09;15.10;99.90
17607;DHT22;8922;52.240;20.980;2022-09-09T11:42:40;15.10;99.90
17607;DHT22;8922;52.240;20.980;2022-09-09T11:45:20;15.20;99.90
17607;DHT22;8922;52.240;20.980;2022-09-09T11:47:53;15.20;99.90
17607;DHT22;8922;52.240;20.980;2022-09-09T11:50:32;15.40;99.90
17607;DHT22;8922;52.240;20.980;2022-09-09T11:53:18;15.40;99.90
17607;DHT22;8922;52.240;20.980;2022-09-09T11:56:00;15.50;99.90
17607;DHT22;8922;52.240;20.980;2022-09-09T11:58:28;15.60;99.90
17607;DHT22;8922;52.240;20.980;2022-09-09T12:00:58;15.60;99.90
17607;DHT22;8922;52.240;20.980;2022-09-09T12:03:35;15.50;99.90
17607;DHT22;8922;52.240;20.980;2022-09-09T12:06:13;15.50;99.90
17607;DHT22;8922;52.240;20.980;2022-09-09T12:08:48;15.50;99.90
17607;DHT22;8922;52.240;20.980;2022-09-09T12:11:24;15.50;99.90
17607;DHT22;8922;52.240;20.980;2022-09-09T12:13:55;15.50;99.90
17607;DHT22;8922;52.240;20.980;2022-09-09T12:16:30;15.50;99.90
17607;DHT22;8922;52.240;20.980;2022-09-09T12:19:16;15.50;99.90
17607;DHT22;8922;52.240;20.980;2022-09-09T12:21:51;15.40;99.90
17607;DHT22;8922;52.240;20.980;2022-09-09T12:24:26;15.40;99.90
17607;DHT22;8922;52.240;20.980;2022-09-09T12:26:59;15.40;99.90
17607;DHT22;8922;52.240;20.980;2022-09-09T12:29:36;15.40;99.90
17607;DHT22;8922;52.240;20.980;2022-09-09T12:32:09;15.40;99.90
17607;DHT22;8922;52.240;20.980;2022-09-09T12:34:40;15.40;99.90
17607;DHT22;8922;52.240;20.980;2022-09-09T12:37:16;15.40;99.90
17607;DHT22;8922;52.240;20.980;2022-09-09T12:39:51;15.40;99.90
17607;DHT22;8922;52.240;20.980;2022-09-09T12:42:20;15.50;99.90
17607;DHT22;8922;52.240;20.980;2022-09-09T12:44:52;15.50;99.90
17607;DHT22;8922;52.240;20.980;2022-09-09T12:47:20;15.60;99.90
17607;DHT22;8922;52.240;20.980;2022-09-09T12:49:48;15.60;99.90
17607;DHT22;8922;52.240;20.980;2022-09-09T12:52:20;15.70;99.90
17607;DHT22;8922;52.240;20.980;2022-09-09T12:54:51;15.80;99.90
17607;DHT22;8922;52.240;20.980;2022-09-09T12:57:19;15.80;99.90
17607;DHT22;8922;52.240;20.980;2022-09-09T12:59:48;15.80;99.90
17607;DHT22;8922;52.240;20.980;2022-09-09T13:02:21;15.80;99.90
17607;DHT22;8922;52.240;20.980;2022-09-09T13:04:48;15.80;99.90
17607;DHT22;8922;52.240;20.980;2022-09-09T13:07:16;15.70;99.90
17607;DHT22;8922;52.240;20.980;2022-09-09T13:09:44;15.60;99.90
17607;DHT22;8922;52.240;20.980;2022-09-09T13:12:15;15.60;99.90
17607;DHT22;8922;52.240;20.980;2022-09-09T13:14:45;15.60;99.90
17607;DHT22;8922;52.240;20.980;2022-09-09T13:17:19;15.60;99.90
17607;DHT22;8922;52.240;20.980;2022-09-09T13:19:47;15.60;99.90
17607;DHT22;8922;52.240;20.980;2022-09-09T13:22:21;15.60;99.90
17607;DHT22;8922;52.240;20.980;2022-09-09T13:24:59;15.60;99.90
17607;DHT22;8922;52.240;20.980;2022-09-09T13:27:31;15.50;99.90
17607;DHT22;8922;52.240;20.980;2022-09-09T13:29:59;15.50;99.90
17607;DHT22;8922;52.240;20.980;2022-09-09T13:32:27;15.50;99.90
17607;DHT22;8922;52.240;20.980;2022-09-09T13:34:56;15.50;99.90
17607;DHT22;8922;52.240;20.980;2022-09-09T13:37:26;15.50;99.90
17607;DHT22;8922;52.240;20.980;2022-09-09T13:39:55;15.40;99.90
17607;DHT22;8922;52.240;20.980;2022-09-09T13:42:25;15.40;99.90
17607;DHT22;8922;52.240;20.980;2022-09-09T13:44:55;15.30;99.90
17607;DHT22;8922;52.240;20.980;2022-09-09T13:47:29;15.30;99.90
17607;DHT22;8922;52.240;20.980;2022-09-09T13:49:56;15.20;99.90
17607;DHT22;8922;52.240;20.980;2022-09-09T13:52:24;15.20;99.90
17607;DHT22;8922;52.240;20.980;2022-09-09T13:54:53;15.20;99.90
17607;DHT22;8922;52.240;20.980;2022-09-09T13:57:23;15.10;99.90
17607;DHT22;8922;52.240;20.980;2022-09-09T13:59:51;15.10;99.90
17607;DHT22;8922;52.240;20.980;2022-09-09T14:02:19;15.10;99.90
17607;DHT22;8922;52.240;20.980;2022-09-09T14:04:46;15.00;99.90
17607;DHT22;8922;52.240;20.980;2022-09-09T14:07:17;15.00;99.90
17607;DHT22;8922;52.240;20.980;2022-09-09T14:09:45;15.00;99.90
17607;DHT22;8922;52.240;20.980;2022-09-09T14:12:15;15.10;99.90
17607;DHT22;8922;52.240;20.980;2022-09-09T14:14:42;15.10;99.90
17607;DHT22;8922;52.240;20.980;2022-09-09T14:17:09;15.10;99.90
17607;DHT22;8922;52.240;20.980;2022-09-09T14:19:37;15.10;99.90
17607;DHT22;8922;52.240;20.980;2022-09-09T14:22:04;15.10;99.90
17607;DHT22;8922;52.240;20.980;2022-09-09T14:24:31;15.10;99.90
17607;DHT22;8922;52.240;20.980;2022-09-09T14:26:58;15.20;99.90
17607;DHT22;8922;52.240;20.980;2022-09-09T14:29:25;15.10;99.90
17607;DHT22;8922;52.240;20.980;2022-09-09T14:31:52;15.10;99.90
17607;DHT22;8922;52.240;20.980;2022-09-09T14:34:19;15.10;99.90
17607;DHT22;8922;52.240;20.980;2022-09-09T14:36:47;15.10;99.90
17607;DHT22;8922;52.240;20.980;2022-09-09T14:39:14;15.20;99.90
17607;DHT22;8922;52.240;20.980;2022-09-09T14:41:40;15.20;99.90
17607;DHT22;8922;52.240;20.980;2022-09-09T14:44:07;15.30;99.90
17607;DHT22;8922;52.240;20.980;2022-09-09T14:46:34;15.30;99.90
17607;DHT22;8922;52.240;20.980;2022-09-09T14:49:01;15.40;99.90
17607;DHT22;8922;52.240;20.980;2022-09-09T14:51:28;15.40;99.90
17607;DHT22;8922;52.240;20.980;2022-09-09T14:53:57;15.40;99.90
17607;DHT22;8922;52.240;20.980;2022-09-09T14:56:26;15.40;99.90
17607;DHT22;8922;52.240;20.980;2022-09-09T14:58:54;15.40;99.90
17607;DHT22;8922;52.240;20.980;2022-09-09T15:01:22;15.30;99.90
17607;DHT22;8922;52.240;20.980;2022-09-09T15:03:50;15.30;99.90
17607;DHT22;8922;52.240;20.980;2022-09-09T15:06:18;15.30;99.90
17607;DHT22;8922;52.240;20.980;2022-09-09T15:08:46;15.30;99.90
17607;DHT22;8922;52.240;20.980;2022-09-09T15:11:15;15.30;99.90
17607;DHT22;8922;52.240;20.980;2022-09-09T15:13:42;15.30;99.90
17607;DHT22;8922;52.240;20.980;2022-09-09T15:16:11;15.30;99.90
17607;DHT22;8922;52.240;20.980;2022-09-09T15:18:38;15.20;99.90
17607;DHT22;8922;52.240;20.980;2022-09-09T15:21:08;15.20;99.90
17607;DHT22;8922;52.240;20.980;2022-09-09T15:23:35;15.20;99.90
17607;DHT22;8922;52.240;20.980;2022-09-09T15:26:03;15.30;99.90
17607;DHT22;8922;52.240;20.980;2022-09-09T15:28:33;15.30;99.90
17607;DHT22;8922;52.240;20.980;2022-09-09T15:31:05;15.30;99.90
17607;DHT22;8922;52.240;20.980;2022-09-09T15:33:33;15.30;99.90
17607;DHT22;8922;52.240;20.980;2022-09-09T15:36:13;15.40;99.90
17607;DHT22;8922;52.240;20.980;2022-09-09T15:38:40;15.40;99.90
17607;DHT22;8922;52.240;20.980;2022-09-09T15:41:06;15.40;99.90
17607;DHT22;8922;52.240;20.980;2022-09-09T15:43:35;15.30;99.90
17607;DHT22;8922;52.240;20.980;2022-09-09T15:46:21;15.30;99.90
17607;DHT22;8922;52.240;20.980;2022-09-09T15:48:51;15.30;99.90
17607;DHT22;8922;52.240;20.980;2022-09-09T15:51:19;15.40;99.90
17607;DHT22;8922;52.240;20.980;2022-09-09T15:53:46;15.40;99.90
17607;DHT22;8922;52.240;20.980;2022-09-09T15:56:13;15.40;99.90
17607;DHT22;8922;52.240;20.980;2022-09-09T15:58:41;15.40;99.90